sensor_id;sensor_type;location;lat;lon;timestamp;P1;durP1;ratioP1;P2;durP2;ratioP2
49548;SDS011;35450;44.518;7.466;2023-05-10T00:01:36;40.97;;;31.98;;
49548;SDS011;35450;44.518;7.466;2023-05-10T00:04:40;38.95;;;29.60;;
49548;SDS011;35450;44.518;7.466;2023-05-10T00:07:44;39.83;;;29.88;;
49548;SDS011;35450;44.518;7.466;2023-05-10T00:10:49;37.38;;;29.65;;
49548;SDS011;35450;44.518;7.466;2023-05-10T00:13:52;36.35;;;28.65;;
49548;SDS011;35450;44.518;7.466;2023-05-10T00:16:56;32.40;;;24.75;;
49548;SDS011;35450;44.518;7.466;2023-05-10T00:20:00;25.75;;;21.33;;
49548;SDS011;35450;44.518;7.466;2023-05-10T00:23:04;27.88;;;22.13;;
49548;SDS011;35450;44.518;7.466;2023-05-10T00:26:08;26.77;;;21.45;;
49548;SDS011;35450;44.518;7.466;2023-05-10T00:29:14;30.17;;;22.13;;
49548;SDS011;35450;44.518;7.466;2023-05-10T00:32:18;28.25;;;22.55;;
49548;SDS011;35450;44.518;7.466;2023-05-10T00:35:22;29.48;;;23.08;;
49548;SDS011;35450;44.518;7.466;2023-05-10T00:38:26;26.80;;;22.65;;
49548;SDS011;35450;44.518;7.466;2023-05-10T00:41:30;27.25;;;21.73;;
49548;SDS011;35450;44.518;7.466;2023-05-10T00:44:37;27.77;;;22.55;;
49548;SDS011;35450;44.518;7.466;2023-05-10T00:47:42;24.85;;;21.88;;
49548;SDS011;35450;44.518;7.466;2023-05-10T00:50:46;28.83;;;22.60;;
49548;SDS011;35450;44.518;7.466;2023-05-10T00:53:51;28.25;;;22.20;;
49548;SDS011;35450;44.518;7.466;2023-05-10T00:56:55;26.80;;;21.63;;
49548;SDS011;35450;44.518;7.466;2023-05-10T01:00:00;28.75;;;22.95;;
49548;SDS011;35450;44.518;7.466;2023-05-10T01:03:06;28.98;;;23.50;;
49548;SDS011;35450;44.518;7.466;2023-05-10T01:06:10;27.70;;;22.23;;
49548;SDS011;35450;44.518;7.466;2023-05-10T01:09:14;27.20;;;22.85;;
49548;SDS011;35450;44.518;7.466;2023-05-10T01:12:18;28.50;;;22.75;;
49548;SDS011;35450;44.518;7.466;2023-05-10T01:15:22;33.05;;;23.55;;
49548;SDS011;35450;44.518;7.466;2023-05-10T01:18:27;27.75;;;23.38;;
49548;SDS011;35450;44.518;7.466;2023-05-10T01:21:43;28.48;;;23.02;;
49548;SDS011;35450;44.518;7.466;2023-05-10T01:39:06;24.17;;;19.60;;
49548;SDS011;35450;44.518;7.466;2023-05-10T01:42:21;21.30;;;17.58;;
49548;SDS011;35450;44.518;7.466;2023-05-10T01:45:46;21.92;;;15.60;;
49548;SDS011;35450;44.518;7.466;2023-05-10T01:48:55;19.73;;;16.17;;
49548;SDS011;35450;44.518;7.466;2023-05-10T01:52:12;19.70;;;15.65;;
49548;SDS011;35450;44.518;7.466;2023-05-10T01:55:20;18.92;;;13.73;;
49548;SDS011;35450;44.518;7.466;2023-05-10T01:58:30;17.27;;;12.13;;
49548;SDS011;35450;44.518;7.466;2023-05-10T02:01:36;15.48;;;12.95;;
49548;SDS011;35450;44.518;7.466;2023-05-10T02:04:41;16.40;;;14.13;;
49548;SDS011;35450;44.518;7.466;2023-05-10T02:07:46;10.07;;;9.07;;
49548;SDS011;35450;44.518;7.466;2023-05-10T02:10:52;12.93;;;9.68;;
49548;SDS011;35450;44.518;7.466;2023-05-10T02:13:58;10.23;;;8.63;;
49548;SDS011;35450;44.518;7.466;2023-05-10T02:17:06;10.25;;;8.85;;
49548;SDS011;35450;44.518;7.466;2023-05-10T02:20:12;10.02;;;8.90;;
49548;SDS011;35450;44.518;7.466;2023-05-10T02:23:17;12.15;;;9.10;;
49548;SDS011;35450;44.518;7.466;2023-05-10T02:26:22;11.90;;;10.07;;
49548;SDS011;35450;44.518;7.466;2023-05-10T02:29:28;9.60;;;8.60;;
49548;SDS011;35450;44.518;7.466;2023-05-10T02:32:34;7.53;;;6.60;;
49548;SDS011;35450;44.518;7.466;2023-05-10T02:35:39;7.95;;;6.70;;
49548;SDS011;35450;44.518;7.466;2023-05-10T02:38:45;8.15;;;7.32;;
49548;SDS011;35450;44.518;7.466;2023-05-10T02:41:50;7.32;;;6.63;;
49548;SDS011;35450;44.518;7.466;2023-05-10T02:44:59;7.32;;;6.00;;
49548;SDS011;35450;44.518;7.466;2023-05-10T02:48:07;6.47;;;5.88;;
49548;SDS011;35450;44.518;7.466;2023-05-10T02:51:11;6.78;;;5.97;;
49548;SDS011;35450;44.518;7.466;2023-05-10T02:54:21;6.28;;;5.68;;
49548;SDS011;35450;44.518;7.466;2023-05-10T02:57:34;9.95;;;5.57;;
49548;SDS011;35450;44.518;7.466;2023-05-10T03:00:41;6.00;;;4.85;;
49548;SDS011;35450;44.518;7.466;2023-05-10T03:03:45;4.90;;;4.30;;
49548;SDS011;35450;44.518;7.466;2023-05-10T03:06:49;8.70;;;3.90;;
49548;SDS011;35450;44.518;7.466;2023-05-10T03:09:54;4.88;;;4.40;;
49548;SDS011;35450;44.518;7.466;2023-05-10T03:13:10;5.60;;;5.00;;
49548;SDS011;35450;44.518;7.466;2023-05-10T03:16:27;7.30;;;5.55;;
49548;SDS011;35450;44.518;7.466;2023-05-10T03:19:47;7.75;;;5.63;;
49548;SDS011;35450;44.518;7.466;2023-05-10T03:23:22;8.10;;;6.72;;
49548;SDS011;35450;44.518;7.466;2023-05-10T03:26:29;11.07;;;7.88;;
49548;SDS011;35450;44.518;7.466;2023-05-10T03:29:45;8.45;;;6.70;;
49548;SDS011;35450;44.518;7.466;2023-05-10T03:32:50;8.73;;;6.78;;
49548;SDS011;35450;44.518;7.466;2023-05-10T03:35:55;6.50;;;5.88;;
49548;SDS011;35450;44.518;7.466;2023-05-10T03:38:59;7.18;;;5.70;;
49548;SDS011;35450;44.518;7.466;2023-05-10T03:42:04;5.75;;;5.18;;
49548;SDS011;35450;44.518;7.466;2023-05-10T03:45:08;9.95;;;5.70;;
49548;SDS011;35450;44.518;7.466;2023-05-10T03:51:38;8.55;;;6.40;;
49548;SDS011;35450;44.518;7.466;2023-05-10T03:54:42;6.53;;;5.57;;
49548;SDS011;35450;44.518;7.466;2023-05-10T03:57:46;9.48;;;6.07;;
49548;SDS011;35450;44.518;7.466;2023-05-10T04:00:53;6.72;;;5.28;;
49548;SDS011;35450;44.518;7.466;2023-05-10T04:03:57;5.05;;;4.55;;
49548;SDS011;35450;44.518;7.466;2023-05-10T04:07:02;5.78;;;5.18;;
49548;SDS011;35450;44.518;7.466;2023-05-10T04:10:06;5.57;;;4.90;;
49548;SDS011;35450;44.518;7.466;2023-05-10T04:13:11;6.00;;;4.85;;
49548;SDS011;35450;44.518;7.466;2023-05-10T04:16:15;4.93;;;4.43;;
49548;SDS011;35450;44.518;7.466;2023-05-10T04:19:19;5.25;;;4.75;;
49548;SDS011;35450;44.518;7.466;2023-05-10T04:22:23;6.55;;;4.90;;
49548;SDS011;35450;44.518;7.466;2023-05-10T04:25:27;6.25;;;4.55;;
49548;SDS011;35450;44.518;7.466;2023-05-10T04:28:31;5.70;;;3.25;;
49548;SDS011;35450;44.518;7.466;2023-05-10T04:31:35;7.53;;;2.80;;
49548;SDS011;35450;44.518;7.466;2023-05-10T04:34:39;3.65;;;3.35;;
49548;SDS011;35450;44.518;7.466;2023-05-10T04:37:43;3.88;;;2.38;;
49548;SDS011;35450;44.518;7.466;2023-05-10T04:40:47;2.97;;;2.17;;
49548;SDS011;35450;44.518;7.466;2023-05-10T04:43:51;2.90;;;2.70;;
49548;SDS011;35450;44.518;7.466;2023-05-10T04:46:55;2.38;;;2.15;;
49548;SDS011;35450;44.518;7.466;2023-05-10T04:49:59;1.83;;;1.65;;
49548;SDS011;35450;44.518;7.466;2023-05-10T04:53:04;2.92;;;1.70;;
49548;SDS011;35450;44.518;7.466;2023-05-10T04:56:08;5.07;;;1.92;;
49548;SDS011;35450;44.518;7.466;2023-05-10T04:59:12;5.03;;;2.63;;
49548;SDS011;35450;44.518;7.466;2023-05-10T05:02:16;4.72;;;2.67;;
49548;SDS011;35450;44.518;7.466;2023-05-10T05:05:20;2.30;;;2.10;;
49548;SDS011;35450;44.518;7.466;2023-05-10T05:08:24;3.10;;;2.72;;
49548;SDS011;35450;44.518;7.466;2023-05-10T05:11:28;2.97;;;2.78;;
49548;SDS011;35450;44.518;7.466;2023-05-10T05:14:33;2.78;;;2.50;;
49548;SDS011;35450;44.518;7.466;2023-05-10T05:17:36;2.13;;;2.00;;
49548;SDS011;35450;44.518;7.466;2023-05-10T05:20:40;2.55;;;2.30;;
49548;SDS011;35450;44.518;7.466;2023-05-10T05:23:44;2.22;;;1.95;;
49548;SDS011;35450;44.518;7.466;2023-05-10T05:26:49;2.47;;;1.90;;
49548;SDS011;35450;44.518;7.466;2023-05-10T05:29:53;1.70;;;1.60;;
49548;SDS011;35450;44.518;7.466;2023-05-10T05:32:57;4.35;;;1.55;;
49548;SDS011;35450;44.518;7.466;2023-05-10T05:36:02;1.77;;;1.67;;
49548;SDS011;35450;44.518;7.466;2023-05-10T05:39:07;1.58;;;1.48;;
49548;SDS011;35450;44.518;7.466;2023-05-10T05:42:11;1.92;;;1.40;;
49548;SDS011;35450;44.518;7.466;2023-05-10T05:45:16;1.38;;;1.27;;
49548;SDS011;35450;44.518;7.466;2023-05-10T05:48:20;5.32;;;1.50;;
49548;SDS011;35450;44.518;7.466;2023-05-10T05:51:24;1.45;;;1.05;;
49548;SDS011;35450;44.518;7.466;2023-05-10T05:54:29;1.38;;;1.27;;
49548;SDS011;35450;44.518;7.466;2023-05-10T05:57:34;1.98;;;1.30;;
49548;SDS011;35450;44.518;7.466;2023-05-10T06:00:38;3.28;;;1.42;;
49548;SDS011;35450;44.518;7.466;2023-05-10T06:03:41;2.20;;;1.55;;
49548;SDS011;35450;44.518;7.466;2023-05-10T06:06:45;1.15;;;1.05;;
49548;SDS011;35450;44.518;7.466;2023-05-10T06:09:50;1.15;;;1.05;;
49548;SDS011;35450;44.518;7.466;2023-05-10T06:12:55;1.52;;;0.82;;
49548;SDS011;35450;44.518;7.466;2023-05-10T06:15:59;1.98;;;1.00;;
49548;SDS011;35450;44.518;7.466;2023-05-10T06:19:04;1.20;;;1.10;;
49548;SDS011;35450;44.518;7.466;2023-05-10T06:22:08;2.10;;;1.10;;
49548;SDS011;35450;44.518;7.466;2023-05-10T06:25:13;1.40;;;1.20;;
49548;SDS011;35450;44.518;7.466;2023-05-10T06:28:21;1.13;;;1.08;;
49548;SDS011;35450;44.518;7.466;2023-05-10T06:31:25;1.13;;;1.00;;
49548;SDS011;35450;44.518;7.466;2023-05-10T06:34:29;3.05;;;1.40;;
49548;SDS011;35450;44.518;7.466;2023-05-10T06:37:38;1.20;;;1.10;;
49548;SDS011;35450;44.518;7.466;2023-05-10T06:40:43;3.67;;;1.50;;
49548;SDS011;35450;44.518;7.466;2023-05-10T06:43:49;1.77;;;1.60;;
49548;SDS011;35450;44.518;7.466;2023-05-10T06:46:55;1.60;;;1.50;;
49548;SDS011;35450;44.518;7.466;2023-05-10T06:50:02;1.98;;;1.52;;
49548;SDS011;35450;44.518;7.466;2023-05-10T06:53:08;4.15;;;3.10;;
49548;SDS011;35450;44.518;7.466;2023-05-10T06:56:17;2.92;;;2.50;;
49548;SDS011;35450;44.518;7.466;2023-05-10T06:59:28;2.38;;;2.17;;
49548;SDS011;35450;44.518;7.466;2023-05-10T07:02:32;3.33;;;3.03;;
49548;SDS011;35450;44.518;7.466;2023-05-10T07:05:38;4.32;;;2.78;;
49548;SDS011;35450;44.518;7.466;2023-05-10T07:08:42;5.57;;;2.70;;
49548;SDS011;35450;44.518;7.466;2023-05-10T07:11:47;4.15;;;3.33;;
49548;SDS011;35450;44.518;7.466;2023-05-10T07:14:51;3.20;;;2.85;;
49548;SDS011;35450;44.518;7.466;2023-05-10T07:17:55;2.92;;;2.65;;
49548;SDS011;35450;44.518;7.466;2023-05-10T07:21:00;4.28;;;3.00;;
49548;SDS011;35450;44.518;7.466;2023-05-10T07:24:05;4.32;;;2.67;;
49548;SDS011;35450;44.518;7.466;2023-05-10T07:27:09;4.82;;;2.50;;
49548;SDS011;35450;44.518;7.466;2023-05-10T07:30:13;6.05;;;3.03;;
49548;SDS011;35450;44.518;7.466;2023-05-10T07:33:17;2.63;;;2.42;;
49548;SDS011;35450;44.518;7.466;2023-05-10T07:36:21;4.15;;;2.17;;
49548;SDS011;35450;44.518;7.466;2023-05-10T07:39:26;3.42;;;2.63;;
49548;SDS011;35450;44.518;7.466;2023-05-10T07:42:30;6.53;;;2.75;;
49548;SDS011;35450;44.518;7.466;2023-05-10T07:45:34;2.72;;;2.45;;
49548;SDS011;35450;44.518;7.466;2023-05-10T07:48:38;4.70;;;2.67;;
49548;SDS011;35450;44.518;7.466;2023-05-10T07:51:42;2.75;;;2.53;;
49548;SDS011;35450;44.518;7.466;2023-05-10T07:54:47;3.15;;;2.85;;
49548;SDS011;35450;44.518;7.466;2023-05-10T07:57:51;3.15;;;2.85;;
49548;SDS011;35450;44.518;7.466;2023-05-10T08:00:55;3.10;;;2.90;;
49548;SDS011;35450;44.518;7.466;2023-05-10T08:03:59;4.15;;;3.60;;
49548;SDS011;35450;44.518;7.466;2023-05-10T08:07:04;3.72;;;3.40;;
49548;SDS011;35450;44.518;7.466;2023-05-10T08:10:08;4.15;;;3.22;;
49548;SDS011;35450;44.518;7.466;2023-05-10T08:13:14;3.30;;;3.00;;
49548;SDS011;35450;44.518;7.466;2023-05-10T08:16:19;4.00;;;3.20;;
49548;SDS011;35450;44.518;7.466;2023-05-10T08:19:23;3.90;;;3.35;;
49548;SDS011;35450;44.518;7.466;2023-05-10T08:22:27;4.50;;;2.92;;
49548;SDS011;35450;44.518;7.466;2023-05-10T08:25:31;3.38;;;3.00;;
49548;SDS011;35450;44.518;7.466;2023-05-10T08:28:35;2.80;;;2.60;;
49548;SDS011;35450;44.518;7.466;2023-05-10T08:31:39;6.72;;;4.03;;
49548;SDS011;35450;44.518;7.466;2023-05-10T08:34:43;5.72;;;3.53;;
49548;SDS011;35450;44.518;7.466;2023-05-10T08:37:47;4.10;;;3.70;;
49548;SDS011;35450;44.518;7.466;2023-05-10T08:40:51;5.55;;;3.63;;
49548;SDS011;35450;44.518;7.466;2023-05-10T08:44:02;4.55;;;3.38;;
49548;SDS011;35450;44.518;7.466;2023-05-10T08:47:09;4.28;;;3.88;;
49548;SDS011;35450;44.518;7.466;2023-05-10T08:50:15;7.88;;;3.72;;
49548;SDS011;35450;44.518;7.466;2023-05-10T08:53:24;4.85;;;4.28;;
49548;SDS011;35450;44.518;7.466;2023-05-10T08:56:31;4.03;;;3.63;;
49548;SDS011;35450;44.518;7.466;2023-05-10T08:59:35;5.82;;;3.60;;
49548;SDS011;35450;44.518;7.466;2023-05-10T09:02:42;4.15;;;3.75;;
49548;SDS011;35450;44.518;7.466;2023-05-10T09:05:49;4.25;;;3.75;;
49548;SDS011;35450;44.518;7.466;2023-05-10T09:08:54;4.40;;;4.00;;
49548;SDS011;35450;44.518;7.466;2023-05-10T09:11:58;6.80;;;4.05;;
49548;SDS011;35450;44.518;7.466;2023-05-10T09:15:03;4.28;;;3.85;;
49548;SDS011;35450;44.518;7.466;2023-05-10T09:18:09;4.53;;;3.88;;
49548;SDS011;35450;44.518;7.466;2023-05-10T09:21:13;3.83;;;3.53;;
49548;SDS011;35450;44.518;7.466;2023-05-10T09:24:17;3.75;;;3.35;;
49548;SDS011;35450;44.518;7.466;2023-05-10T09:27:27;4.07;;;3.67;;
49548;SDS011;35450;44.518;7.466;2023-05-10T09:30:31;3.45;;;3.13;;
49548;SDS011;35450;44.518;7.466;2023-05-10T09:33:43;3.95;;;3.42;;
49548;SDS011;35450;44.518;7.466;2023-05-10T09:36:55;4.30;;;3.50;;
49548;SDS011;35450;44.518;7.466;2023-05-10T09:40:03;4.75;;;2.65;;
49548;SDS011;35450;44.518;7.466;2023-05-10T09:43:08;2.92;;;2.58;;
49548;SDS011;35450;44.518;7.466;2023-05-10T09:46:15;3.88;;;3.33;;
49548;SDS011;35450;44.518;7.466;2023-05-10T09:49:20;2.88;;;2.60;;
49548;SDS011;35450;44.518;7.466;2023-05-10T09:52:25;2.88;;;2.67;;
49548;SDS011;35450;44.518;7.466;2023-05-10T09:58:38;7.70;;;2.97;;
49548;SDS011;35450;44.518;7.466;2023-05-10T10:01:51;3.72;;;2.80;;
49548;SDS011;35450;44.518;7.466;2023-05-10T10:04:55;2.70;;;2.42;;
49548;SDS011;35450;44.518;7.466;2023-05-10T10:08:00;2.88;;;2.67;;
49548;SDS011;35450;44.518;7.466;2023-05-10T10:11:08;3.38;;;2.90;;
49548;SDS011;35450;44.518;7.466;2023-05-10T10:14:12;4.63;;;2.75;;
49548;SDS011;35450;44.518;7.466;2023-05-10T10:17:17;3.85;;;3.42;;
49548;SDS011;35450;44.518;7.466;2023-05-10T10:20:23;3.15;;;2.85;;
49548;SDS011;35450;44.518;7.466;2023-05-10T10:23:29;2.67;;;2.47;;
49548;SDS011;35450;44.518;7.466;2023-05-10T10:26:33;1.55;;;1.45;;
49548;SDS011;35450;44.518;7.466;2023-05-10T10:29:47;2.40;;;2.17;;
49548;SDS011;35450;44.518;7.466;2023-05-10T10:36:51;2.10;;;1.95;;
49548;SDS011;35450;44.518;7.466;2023-05-10T10:39:55;2.97;;;1.83;;
49548;SDS011;35450;44.518;7.466;2023-05-10T10:43:33;1.30;;;1.20;;
49548;SDS011;35450;44.518;7.466;2023-05-10T10:46:31;1.85;;;1.58;;
49548;SDS011;35450;44.518;7.466;2023-05-10T10:49:38;1.58;;;1.48;;
49548;SDS011;35450;44.518;7.466;2023-05-10T10:56:02;0.88;;;0.80;;
49548;SDS011;35450;44.518;7.466;2023-05-10T11:02:34;0.90;;;0.80;;
49548;SDS011;35450;44.518;7.466;2023-05-10T11:05:57;0.70;;;0.70;;
49548;SDS011;35450;44.518;7.466;2023-05-10T11:09:08;0.90;;;0.90;;
49548;SDS011;35450;44.518;7.466;2023-05-10T11:12:15;1.48;;;1.38;;
49548;SDS011;35450;44.518;7.466;2023-05-10T11:15:19;1.00;;;0.90;;
49548;SDS011;35450;44.518;7.466;2023-05-10T11:18:28;0.70;;;0.70;;
49548;SDS011;35450;44.518;7.466;2023-05-10T11:21:34;0.40;;;0.40;;
49548;SDS011;35450;44.518;7.466;2023-05-10T11:24:58;1.45;;;0.80;;
49548;SDS011;35450;44.518;7.466;2023-05-10T11:28:02;0.68;;;0.55;;
49548;SDS011;35450;44.518;7.466;2023-05-10T11:31:08;1.13;;;1.02;;
49548;SDS011;35450;44.518;7.466;2023-05-10T11:34:25;2.25;;;1.00;;
49548;SDS011;35450;44.518;7.466;2023-05-10T11:37:31;2.97;;;0.75;;
49548;SDS011;35450;44.518;7.466;2023-05-10T11:40:37;0.93;;;0.93;;
49548;SDS011;35450;44.518;7.466;2023-05-10T11:43:42;1.15;;;1.05;;
49548;SDS011;35450;44.518;7.466;2023-05-10T11:46:48;0.90;;;0.90;;
49548;SDS011;35450;44.518;7.466;2023-05-10T11:49:53;1.02;;;1.02;;
49548;SDS011;35450;44.518;7.466;2023-05-10T11:52:57;1.15;;;0.88;;
49548;SDS011;35450;44.518;7.466;2023-05-10T11:56:02;1.77;;;0.93;;
49548;SDS011;35450;44.518;7.466;2023-05-10T11:59:08;4.13;;;1.30;;
49548;SDS011;35450;44.518;7.466;2023-05-10T12:02:13;1.30;;;1.20;;
49548;SDS011;35450;44.518;7.466;2023-05-10T12:05:17;1.27;;;1.10;;
49548;SDS011;35450;44.518;7.466;2023-05-10T12:08:23;1.73;;;1.58;;
49548;SDS011;35450;44.518;7.466;2023-05-10T12:11:30;3.63;;;1.42;;
49548;SDS011;35450;44.518;7.466;2023-05-10T12:14:34;1.80;;;1.52;;
49548;SDS011;35450;44.518;7.466;2023-05-10T12:17:39;1.83;;;1.63;;
49548;SDS011;35450;44.518;7.466;2023-05-10T12:20:46;1.35;;;1.25;;
49548;SDS011;35450;44.518;7.466;2023-05-10T12:23:50;1.05;;;0.95;;
49548;SDS011;35450;44.518;7.466;2023-05-10T12:26:57;1.48;;;0.93;;
49548;SDS011;35450;44.518;7.466;2023-05-10T12:30:01;1.48;;;1.35;;
49548;SDS011;35450;44.518;7.466;2023-05-10T12:33:13;1.60;;;1.50;;
49548;SDS011;35450;44.518;7.466;2023-05-10T12:36:24;1.88;;;1.77;;
49548;SDS011;35450;44.518;7.466;2023-05-10T12:39:38;3.28;;;1.80;;
49548;SDS011;35450;44.518;7.466;2023-05-10T12:42:46;2.22;;;1.80;;
49548;SDS011;35450;44.518;7.466;2023-05-10T12:45:52;7.75;;;1.60;;
49548;SDS011;35450;44.518;7.466;2023-05-10T12:48:56;2.08;;;1.90;;
49548;SDS011;35450;44.518;7.466;2023-05-10T12:52:00;2.35;;;2.13;;
49548;SDS011;35450;44.518;7.466;2023-05-10T12:55:04;2.92;;;2.53;;
49548;SDS011;35450;44.518;7.466;2023-05-10T12:58:08;2.13;;;1.88;;
49548;SDS011;35450;44.518;7.466;2023-05-10T13:01:13;2.60;;;2.40;;
49548;SDS011;35450;44.518;7.466;2023-05-10T13:04:17;2.33;;;2.08;;
49548;SDS011;35450;44.518;7.466;2023-05-10T13:07:21;2.47;;;2.00;;
49548;SDS011;35450;44.518;7.466;2023-05-10T13:10:25;3.10;;;2.60;;
49548;SDS011;35450;44.518;7.466;2023-05-10T13:13:30;4.43;;;2.30;;
49548;SDS011;35450;44.518;7.466;2023-05-10T13:16:33;3.28;;;2.63;;
49548;SDS011;35450;44.518;7.466;2023-05-10T13:19:37;3.75;;;2.55;;
49548;SDS011;35450;44.518;7.466;2023-05-10T13:22:45;3.47;;;2.70;;
49548;SDS011;35450;44.518;7.466;2023-05-10T13:25:49;2.53;;;2.33;;
49548;SDS011;35450;44.518;7.466;2023-05-10T13:28:53;4.10;;;2.88;;
49548;SDS011;35450;44.518;7.466;2023-05-10T13:31:59;3.03;;;2.80;;
49548;SDS011;35450;44.518;7.466;2023-05-10T13:35:03;2.72;;;2.53;;
49548;SDS011;35450;44.518;7.466;2023-05-10T13:38:07;2.63;;;2.40;;
49548;SDS011;35450;44.518;7.466;2023-05-10T13:41:11;3.42;;;2.80;;
49548;SDS011;35450;44.518;7.466;2023-05-10T13:44:16;2.80;;;2.58;;
49548;SDS011;35450;44.518;7.466;2023-05-10T13:47:20;2.65;;;2.45;;
49548;SDS011;35450;44.518;7.466;2023-05-10T13:50:25;4.75;;;3.25;;
49548;SDS011;35450;44.518;7.466;2023-05-10T13:53:30;2.95;;;2.72;;
49548;SDS011;35450;44.518;7.466;2023-05-10T13:56:34;4.82;;;2.88;;
49548;SDS011;35450;44.518;7.466;2023-05-10T13:59:38;16.95;;;4.40;;
49548;SDS011;35450;44.518;7.466;2023-05-10T14:02:42;3.33;;;3.03;;
49548;SDS011;35450;44.518;7.466;2023-05-10T14:05:46;3.20;;;2.90;;
49548;SDS011;35450;44.518;7.466;2023-05-10T14:08:50;3.88;;;2.80;;
49548;SDS011;35450;44.518;7.466;2023-05-10T14:11:54;3.08;;;2.75;;
49548;SDS011;35450;44.518;7.466;2023-05-10T14:14:59;2.88;;;2.58;;
49548;SDS011;35450;44.518;7.466;2023-05-10T14:18:03;3.13;;;2.50;;
49548;SDS011;35450;44.518;7.466;2023-05-10T14:21:07;2.72;;;2.53;;
49548;SDS011;35450;44.518;7.466;2023-05-10T14:24:11;2.45;;;2.17;;
49548;SDS011;35450;44.518;7.466;2023-05-10T14:27:15;3.28;;;2.50;;
49548;SDS011;35450;44.518;7.466;2023-05-10T14:30:20;2.92;;;2.33;;
49548;SDS011;35450;44.518;7.466;2023-05-10T14:33:24;2.30;;;2.10;;
49548;SDS011;35450;44.518;7.466;2023-05-10T14:36:28;2.50;;;2.30;;
49548;SDS011;35450;44.518;7.466;2023-05-10T14:39:33;4.25;;;2.30;;
49548;SDS011;35450;44.518;7.466;2023-05-10T14:42:37;2.00;;;1.90;;
49548;SDS011;35450;44.518;7.466;2023-05-10T14:45:41;4.82;;;2.00;;
49548;SDS011;35450;44.518;7.466;2023-05-10T14:48:45;2.65;;;2.10;;
49548;SDS011;35450;44.518;7.466;2023-05-10T14:51:49;2.88;;;2.10;;
49548;SDS011;35450;44.518;7.466;2023-05-10T14:54:53;4.90;;;2.60;;
49548;SDS011;35450;44.518;7.466;2023-05-10T14:57:57;2.63;;;2.38;;
49548;SDS011;35450;44.518;7.466;2023-05-10T15:01:02;3.83;;;2.90;;
49548;SDS011;35450;44.518;7.466;2023-05-10T15:04:06;2.20;;;1.90;;
49548;SDS011;35450;44.518;7.466;2023-05-10T15:07:10;4.45;;;2.90;;
49548;SDS011;35450;44.518;7.466;2023-05-10T15:10:17;2.80;;;2.58;;
49548;SDS011;35450;44.518;7.466;2023-05-10T15:13:22;4.88;;;2.22;;
49548;SDS011;35450;44.518;7.466;2023-05-10T15:16:26;2.53;;;2.28;;
49548;SDS011;35450;44.518;7.466;2023-05-10T15:19:30;4.70;;;2.08;;
49548;SDS011;35450;44.518;7.466;2023-05-10T15:22:34;2.55;;;2.20;;
49548;SDS011;35450;44.518;7.466;2023-05-10T15:25:38;3.33;;;2.05;;
49548;SDS011;35450;44.518;7.466;2023-05-10T15:28:42;4.78;;;2.35;;
49548;SDS011;35450;44.518;7.466;2023-05-10T15:31:49;4.28;;;2.72;;
49548;SDS011;35450;44.518;7.466;2023-05-10T15:34:54;5.50;;;2.90;;
49548;SDS011;35450;44.518;7.466;2023-05-10T15:37:59;6.38;;;3.30;;
49548;SDS011;35450;44.518;7.466;2023-05-10T15:41:03;5.15;;;2.88;;
49548;SDS011;35450;44.518;7.466;2023-05-10T15:44:08;4.00;;;2.85;;
49548;SDS011;35450;44.518;7.466;2023-05-10T15:47:12;4.45;;;3.30;;
49548;SDS011;35450;44.518;7.466;2023-05-10T15:50:16;4.50;;;3.40;;
49548;SDS011;35450;44.518;7.466;2023-05-10T15:53:20;3.75;;;3.22;;
49548;SDS011;35450;44.518;7.466;2023-05-10T15:56:24;5.60;;;3.30;;
49548;SDS011;35450;44.518;7.466;2023-05-10T15:59:28;5.75;;;3.20;;
49548;SDS011;35450;44.518;7.466;2023-05-10T16:02:32;4.43;;;3.30;;
49548;SDS011;35450;44.518;7.466;2023-05-10T16:05:36;5.35;;;3.97;;
49548;SDS011;35450;44.518;7.466;2023-05-10T16:08:40;5.25;;;4.07;;
49548;SDS011;35450;44.518;7.466;2023-05-10T16:11:44;4.63;;;3.92;;
49548;SDS011;35450;44.518;7.466;2023-05-10T16:14:48;2.88;;;2.13;;
49548;SDS011;35450;44.518;7.466;2023-05-10T16:17:53;3.00;;;1.83;;
49548;SDS011;35450;44.518;7.466;2023-05-10T16:20:57;4.95;;;1.50;;
49548;SDS011;35450;44.518;7.466;2023-05-10T16:24:02;6.60;;;1.27;;
49548;SDS011;35450;44.518;7.466;2023-05-10T16:27:06;4.63;;;1.20;;
49548;SDS011;35450;44.518;7.466;2023-05-10T16:30:10;1.95;;;1.67;;
49548;SDS011;35450;44.518;7.466;2023-05-10T16:33:15;1.98;;;1.13;;
49548;SDS011;35450;44.518;7.466;2023-05-10T16:36:19;3.00;;;0.82;;
49548;SDS011;35450;44.518;7.466;2023-05-10T16:39:23;5.38;;;0.95;;
49548;SDS011;35450;44.518;7.466;2023-05-10T16:42:27;0.95;;;0.30;;
49548;SDS011;35450;44.518;7.466;2023-05-10T16:45:32;1.35;;;0.60;;
49548;SDS011;35450;44.518;7.466;2023-05-10T16:48:36;4.95;;;1.17;;
49548;SDS011;35450;44.518;7.466;2023-05-10T16:51:41;1.00;;;0.90;;
49548;SDS011;35450;44.518;7.466;2023-05-10T16:54:45;2.08;;;1.00;;
49548;SDS011;35450;44.518;7.466;2023-05-10T16:57:50;2.85;;;1.05;;
49548;SDS011;35450;44.518;7.466;2023-05-10T17:00:53;2.28;;;1.35;;
49548;SDS011;35450;44.518;7.466;2023-05-10T17:03:57;3.38;;;2.53;;
49548;SDS011;35450;44.518;7.466;2023-05-10T17:07:02;4.43;;;2.08;;
49548;SDS011;35450;44.518;7.466;2023-05-10T17:10:06;6.90;;;2.05;;
49548;SDS011;35450;44.518;7.466;2023-05-10T17:13:10;3.38;;;1.77;;
49548;SDS011;35450;44.518;7.466;2023-05-10T17:16:14;5.80;;;2.17;;
49548;SDS011;35450;44.518;7.466;2023-05-10T17:19:18;4.55;;;2.25;;
49548;SDS011;35450;44.518;7.466;2023-05-10T17:22:23;6.65;;;2.03;;
49548;SDS011;35450;44.518;7.466;2023-05-10T17:25:28;2.58;;;2.10;;
49548;SDS011;35450;44.518;7.466;2023-05-10T17:28:32;4.13;;;2.45;;
49548;SDS011;35450;44.518;7.466;2023-05-10T17:31:36;2.63;;;1.92;;
49548;SDS011;35450;44.518;7.466;2023-05-10T17:34:40;3.47;;;2.28;;
49548;SDS011;35450;44.518;7.466;2023-05-10T17:37:45;2.30;;;2.10;;
49548;SDS011;35450;44.518;7.466;2023-05-10T17:40:49;4.20;;;2.67;;
49548;SDS011;35450;44.518;7.466;2023-05-10T17:43:53;3.72;;;2.80;;
49548;SDS011;35450;44.518;7.466;2023-05-10T17:46:57;14.35;;;4.65;;
49548;SDS011;35450;44.518;7.466;2023-05-10T17:50:02;5.72;;;4.30;;
49548;SDS011;35450;44.518;7.466;2023-05-10T17:53:08;7.10;;;4.45;;
49548;SDS011;35450;44.518;7.466;2023-05-10T17:56:14;4.68;;;3.60;;
49548;SDS011;35450;44.518;7.466;2023-05-10T17:59:18;6.20;;;3.90;;
49548;SDS011;35450;44.518;7.466;2023-05-10T18:02:22;6.22;;;3.90;;
49548;SDS011;35450;44.518;7.466;2023-05-10T18:05:27;4.18;;;3.47;;
49548;SDS011;35450;44.518;7.466;2023-05-10T18:08:32;3.25;;;2.95;;
49548;SDS011;35450;44.518;7.466;2023-05-10T18:11:36;5.43;;;3.30;;
49548;SDS011;35450;44.518;7.466;2023-05-10T18:14:40;6.72;;;2.97;;
49548;SDS011;35450;44.518;7.466;2023-05-10T18:17:44;6.07;;;2.60;;
49548;SDS011;35450;44.518;7.466;2023-05-10T18:20:48;2.78;;;1.83;;
49548;SDS011;35450;44.518;7.466;2023-05-10T18:23:58;3.50;;;1.98;;
49548;SDS011;35450;44.518;7.466;2023-05-10T18:27:02;2.33;;;2.08;;
49548;SDS011;35450;44.518;7.466;2023-05-10T18:30:08;5.80;;;2.30;;
49548;SDS011;35450;44.518;7.466;2023-05-10T18:33:14;1.77;;;1.67;;
49548;SDS011;35450;44.518;7.466;2023-05-10T18:36:18;4.10;;;2.28;;
49548;SDS011;35450;44.518;7.466;2023-05-10T18:39:22;3.75;;;2.85;;
49548;SDS011;35450;44.518;7.466;2023-05-10T18:42:27;3.75;;;2.30;;
49548;SDS011;35450;44.518;7.466;2023-05-10T18:45:31;8.38;;;1.75;;
49548;SDS011;35450;44.518;7.466;2023-05-10T18:48:35;3.53;;;2.05;;
49548;SDS011;35450;44.518;7.466;2023-05-10T18:51:39;9.80;;;1.98;;
49548;SDS011;35450;44.518;7.466;2023-05-10T18:54:42;2.25;;;1.63;;
49548;SDS011;35450;44.518;7.466;2023-05-10T18:57:46;2.60;;;1.90;;
49548;SDS011;35450;44.518;7.466;2023-05-10T19:00:51;3.97;;;1.70;;
49548;SDS011;35450;44.518;7.466;2023-05-10T19:03:55;2.92;;;1.88;;
49548;SDS011;35450;44.518;7.466;2023-05-10T19:06:59;7.18;;;1.75;;